Terminal Aerodrome Forecast
Issued by NWS Cleveland, OH

Home | Current Version | Previous Version | Text Only | Print | Product List | Glossary On
Versions: 1 2 3 4 5 6 7 8 9 10 11 12 13 14 15 16 17 18 19 20 21 22
000
FTUS41 KCLE 232300
TAFCAK
TAF
KCAK 232329Z 2400/2424 33006KT P6SM SCT250
     FM240200 VRB03KT P6SM BKN200
     FM241500 26006KT P6SM FEW045 BKN150
     FM242200 26006KT P6SM BKN045 OVC100=

USA.gov is the U.S. government's official web portal to all federal, state and local government web resources and services.